Time;durP1;ratioP1;P1;durP2;ratioP2;P2;SDS_P1;SDS_P2;PMS_P1;PMS_P2;Temp;Humidity;BMP_temperature;BMP_pressure;BME280_temperature;BME280_humidity;BME280_pressure;Samples;Min_cycle;Max_cycle;Signal;HPM_P1;HPM_P2
2023/06/28 00:01:27;;;;;;;7.90;7.20;;;;;;;17.89;100.00;98746.40;106045;1254;60414;-82
2023/06/28 00:03:54;;;;;;;8.40;7.00;;;;;;;17.90;99.87;98735.90;108239;1254;73725;-80
2023/06/28 00:06:21;;;;;;;8.50;7.50;;;;;;;17.93;99.60;98733.42;109281;1254;68029;-77
2023/06/28 00:08:49;;;;;;;8.50;7.70;;;;;;;17.92;99.30;98739.00;109235;1254;71453;-78
2023/06/28 00:11:15;;;;;;;7.10;6.50;;;;;;;17.94;99.26;98739.08;109462;1254;60662;-81
2023/06/28 00:13:42;;;;;;;7.90;7.10;;;;;;;17.97;99.23;98740.00;109564;1253;58978;-81
2023/06/28 00:16:09;;;;;;;7.60;6.60;;;;;;;17.99;98.96;98743.86;109222;1254;72604;-75
2023/06/28 00:18:37;;;;;;;7.10;6.40;;;;;;;17.97;98.56;98748.35;109479;1253;69405;-83
2023/06/28 00:21:04;;;;;;;7.10;6.50;;;;;;;17.95;98.11;98745.44;107783;1254;71611;-78
2023/06/28 00:23:31;;;;;;;6.70;6.00;;;;;;;17.94;98.42;98748.86;108293;1254;60706;-78
2023/06/28 00:25:57;;;;;;;7.00;6.40;;;;;;;17.95;98.50;98745.02;108984;1254;60255;-78
2023/06/28 00:28:24;;;;;;;7.40;6.30;;;;;;;17.93;98.12;98744.88;109070;1255;72508;-77
2023/06/28 00:30:51;;;;;;;6.80;5.60;;;;;;;17.94;97.75;98746.60;109305;1253;69135;-80
2023/06/28 00:33:20;;;;;;;6.60;5.80;;;;;;;17.94;96.23;98747.63;109173;1256;71197;-76
2023/06/28 00:35:47;;;;;;;6.30;5.70;;;;;;;17.94;96.06;98745.80;108376;1254;60649;-80
2023/06/28 00:38:14;;;;;;;6.10;5.50;;;;;;;17.94;95.82;98739.45;109258;1253;59318;-80
2023/06/28 00:40:42;;;;;;;7.10;5.80;;;;;;;17.92;95.44;98739.38;109422;1253;72453;-81
2023/06/28 00:43:09;;;;;;;6.00;5.30;;;;;;;17.88;95.21;98741.02;109472;1254;69153;-81
2023/06/28 00:45:36;;;;;;;7.20;5.60;;;;;;;17.91;94.88;98743.70;109532;1253;71248;-82
2023/06/28 00:48:02;;;;;;;6.10;5.20;;;;;;;17.92;94.63;98739.21;109492;1253;58971;-81
2023/06/28 00:50:29;;;;;;;5.60;5.10;;;;;;;17.86;94.27;98732.02;109375;1254;58962;-79
2023/06/28 00:52:57;;;;;;;9.90;5.50;;;;;;;17.87;94.37;98730.79;109568;1254;74796;-81
2023/06/28 00:55:24;;;;;;;6.00;5.50;;;;;;;17.90;94.12;98728.54;109520;1253;69381;-86
2023/06/28 00:57:51;;;;;;;7.40;5.60;;;;;;;17.83;93.76;98727.21;109423;1253;72246;-86
2023/06/28 01:00:21;;;;;;;6.50;5.70;;;;;;;17.82;94.22;98727.98;108928;1254;60371;-85
2023/06/28 01:02:49;;;;;;;6.70;6.10;;;;;;;17.83;93.69;98725.07;109476;1254;58875;-86
2023/06/28 01:05:20;;;;;;;8.00;6.00;;;;;;;17.74;93.49;98725.76;108948;1261;72377;-79
2023/06/28 01:07:50;;;;;;;6.90;5.20;;;;;;;17.71;93.47;98719.33;108948;1256;69270;-81
2023/06/28 01:10:17;;;;;;;8.00;4.70;;;;;;;17.69;93.53;98719.69;109401;1254;71474;-82
2023/06/28 01:12:46;;;;;;;5.90;5.30;;;;;;;17.64;93.49;98725.05;109238;1254;58091;-81
2023/06/28 01:15:13;;;;;;;5.70;5.10;;;;;;;17.56;93.58;98725.80;109289;1254;58845;-80
2023/06/28 01:17:41;;;;;;;5.70;4.80;;;;;;;17.55;93.31;98725.24;109398;1254;72514;-80
2023/06/28 01:20:08;;;;;;;6.10;4.80;;;;;;;17.54;92.75;98733.27;109268;1254;68854;-81
2023/06/28 01:22:35;;;;;;;5.80;5.10;;;;;;;17.48;92.28;98731.37;109357;1254;71186;-81
2023/06/28 01:25:05;;;;;;;6.30;4.60;;;;;;;17.41;92.33;98729.50;108683;1254;60170;-81
2023/06/28 01:27:32;;;;;;;5.30;4.60;;;;;;;17.33;92.44;98729.66;109519;1257;60015;-83
2023/06/28 01:29:59;;;;;;;6.10;4.20;;;;;;;17.33;92.19;98733.24;109402;1254;72208;-81
2023/06/28 01:32:26;;;;;;;6.90;4.90;;;;;;;17.32;91.89;98732.64;109306;1254;69084;-79
2023/06/28 01:34:59;;;;;;;7.10;4.70;;;;;;;17.26;92.13;98727.14;109368;1253;71061;-77
2023/06/28 01:37:25;;;;;;;6.80;4.30;;;;;;;17.24;91.87;98731.17;109456;1254;60774;-78
2023/06/28 01:39:52;;;;;;;4.50;3.90;;;;;;;17.23;92.10;98725.80;109223;1254;59242;-78
2023/06/28 01:42:19;;;;;;;5.40;4.20;;;;;;;17.21;92.21;98727.40;108036;1259;60429;-79
2023/06/28 01:44:45;;;;;;;5.80;4.30;;;;;;;17.16;92.43;98727.20;109426;1254;68949;-78
2023/06/28 01:47:12;;;;;;;5.30;4.20;;;;;;;17.09;92.85;98725.02;109185;1253;71222;-80
2023/06/28 01:49:39;;;;;;;5.80;4.30;;;;;;;17.09;92.95;98725.34;109010;1254;60287;-77
2023/06/28 01:52:07;;;;;;;5.10;4.50;;;;;;;17.06;93.00;98734.29;109144;1257;60310;-75
2023/06/28 01:54:35;;;;;;;5.10;4.50;;;;;;;17.02;93.36;98728.45;108672;1257;72824;-75
2023/06/28 01:57:02;;;;;;;6.20;4.20;;;;;;;17.01;93.44;98727.90;108863;1254;69019;-79
2023/06/28 01:59:30;;;;;;;5.60;4.50;;;;;;;16.98;93.43;98732.23;106564;1255;71472;-78
2023/06/28 02:01:57;;;;;;;5.40;4.70;;;;;;;16.94;93.53;98732.98;106029;1254;60701;-81
2023/06/28 02:04:24;;;;;;;6.10;4.50;;;;;;;16.89;93.86;98732.77;106140;1254;60415;-82
2023/06/28 02:06:52;;;;;;;5.40;4.20;;;;;;;16.85;93.82;98738.38;106057;1254;72806;-81
2023/06/28 02:09:19;;;;;;;5.60;4.80;;;;;;;16.81;93.67;98734.67;106542;1253;69768;-80
2023/06/28 02:11:46;;;;;;;6.50;4.70;;;;;;;16.79;93.61;98738.95;107338;1257;72586;-82
2023/06/28 02:14:14;;;;;;;5.90;4.80;;;;;;;16.78;94.07;98742.96;109219;1254;61639;-78
2023/06/28 02:16:42;;;;;;;10.60;4.20;;;;;;;16.76;93.96;98744.70;107379;1258;60449;-81
2023/06/28 02:19:12;;;;;;;9.20;4.70;;;;;;;16.78;94.25;98739.14;106030;1259;72886;-77
2023/06/28 02:21:40;;;;;;;6.10;4.10;;;;;;;16.81;93.98;98744.41;106996;1254;71236;-80
2023/06/28 02:24:09;;;;;;;5.90;4.10;;;;;;;16.81;93.59;98752.09;108725;1254;72638;-78
2023/06/28 02:26:36;;;;;;;7.00;5.00;;;;;;;16.77;93.73;98747.45;107719;1259;61958;-81
2023/06/28 02:29:03;;;;;;;5.10;4.30;;;;;;;16.79;93.43;98744.81;108260;1254;60663;-86
2023/06/28 02:31:30;;;;;;;5.90;4.60;;;;;;;16.81;93.10;98748.98;109481;1253;72841;-86
2023/06/28 02:33:57;;;;;;;5.10;4.40;;;;;;;16.77;92.69;98746.11;109411;1256;68734;-84
2023/06/28 02:36:24;;;;;;;5.50;4.10;;;;;;;16.81;92.83;98753.97;108514;1254;71387;-85
2023/06/28 02:38:51;;;;;;;4.70;4.20;;;;;;;16.85;92.56;98753.90;107194;1254;60530;-80
2023/06/28 02:41:17;;;;;;;8.00;4.90;;;;;;;16.82;92.25;98753.80;106774;1259;60140;-79
2023/06/28 02:43:44;;;;;;;7.90;4.40;;;;;;;16.81;91.98;98759.60;109206;1254;72426;-78
2023/06/28 02:46:10;;;;;;;7.70;5.20;;;;;;;16.80;91.80;98763.08;107353;1258;60456;-79
2023/06/28 02:48:38;;;;;;;7.50;4.30;;;;;;;16.74;91.73;98762.02;105968;1259;72655;-75
2023/06/28 02:51:05;;;;;;;5.50;4.90;;;;;;;16.70;91.73;98762.98;105779;1254;61778;-84
2023/06/28 02:53:32;;;;;;;4.60;4.20;;;;;;;16.69;91.89;98755.77;106053;1256;60454;-82
2023/06/28 02:55:59;;;;;;;6.80;5.00;;;;;;;16.66;91.30;98761.45;105834;1254;73946;-82
2023/06/28 02:58:49;;;;;;;5.10;4.60;;;;;;;16.64;91.17;98754.87;106617;1258;70060;-80
2023/06/28 03:01:16;;;;;;;7.40;4.10;;;;;;;16.64;91.25;98749.44;107133;1260;71452;-80
2023/06/28 03:03:45;;;;;;;4.80;4.30;;;;;;;16.61;91.48;98751.25;106160;1255;60482;-80
2023/06/28 03:06:12;;;;;;;6.60;4.10;;;;;;;16.58;91.62;98754.07;105957;1259;60433;-82
2023/06/28 03:08:39;;;;;;;6.90;4.60;;;;;;;16.61;91.30;98769.16;106007;1254;73810;-81
2023/06/28 03:11:05;;;;;;;11.00;4.90;;;;;;;16.58;91.00;98775.47;106416;1259;68804;-79
2023/06/28 03:13:33;;;;;;;6.60;4.30;;;;;;;16.59;90.92;98784.41;108075;1259;72447;-77
2023/06/28 03:16:00;;;;;;;5.30;4.60;;;;;;;16.63;90.36;98779.60;108443;1258;60533;-77
2023/06/28 03:18:27;;;;;;;6.40;4.70;;;;;;;16.65;90.23;98771.14;105883;1259;60395;-78
2023/06/28 03:20:53;;;;;;;5.50;4.00;;;;;;;16.65;90.17;98764.17;106164;1257;72633;-77
2023/06/28 03:23:21;;;;;;;7.40;5.10;;;;;;;16.61;89.94;98761.45;106223;1261;69124;-85
2023/06/28 03:25:48;;;;;;;6.80;4.60;;;;;;;16.63;89.57;98769.95;106267;1257;72519;-84
2023/06/28 03:28:16;;;;;;;5.50;4.70;;;;;;;16.65;88.95;98769.21;108555;1254;60400;-84
2023/06/28 03:30:42;;;;;;;5.80;4.40;;;;;;;16.62;88.86;98771.55;108747;1254;59027;-79
2023/06/28 03:33:09;;;;;;;5.70;4.30;;;;;;;16.66;89.05;98770.77;107669;1258;72398;-82
2023/06/28 03:35:36;;;;;;;6.10;4.10;;;;;;;16.72;88.56;98778.42;105986;1259;69361;-80
2023/06/28 03:38:03;;;;;;;10.00;4.10;;;;;;;16.72;88.16;98781.07;106043;1259;72654;-80
2023/06/28 03:40:29;;;;;;;5.30;4.00;;;;;;;16.68;88.04;98784.89;106306;1257;61807;-80
2023/06/28 03:42:56;;;;;;;7.00;3.90;;;;;;;16.72;87.82;98777.94;107324;1253;60443;-79
2023/06/28 03:45:23;;;;;;;7.40;4.40;;;;;;;16.73;87.19;98777.88;109096;1254;72317;-81
2023/06/28 03:47:50;;;;;;;6.80;4.00;;;;;;;16.67;87.05;98777.30;106311;1260;69223;-80
2023/06/28 03:50:17;;;;;;;6.70;4.80;;;;;;;16.64;86.96;98784.09;106319;1258;72831;-80
2023/06/28 03:52:44;;;;;;;8.20;4.10;;;;;;;16.65;86.92;98782.41;106019;1258;61783;-80
2023/06/28 03:55:12;;;;;;;5.40;3.80;;;;;;;16.62;86.84;98784.70;105975;1257;60565;-80
2023/06/28 03:57:39;;;;;;;9.20;3.90;;;;;;;16.53;86.60;98785.66;106392;1259;72400;-79
2023/06/28 04:00:11;;;;;;;7.30;4.00;;;;;;;16.52;86.38;98786.55;107891;1256;69183;-78
2023/06/28 04:02:41;;;;;;;6.60;3.90;;;;;;;16.52;86.50;98784.48;107185;1256;72745;-79
2023/06/28 04:05:08;;;;;;;8.60;4.00;;;;;;;16.47;86.57;98784.58;106872;1255;60525;-79
2023/06/28 04:07:35;;;;;;;7.70;3.90;;;;;;;16.47;86.14;98778.25;105997;1260;60344;-75
2023/06/28 04:10:03;;;;;;;4.90;3.70;;;;;;;16.52;86.30;98774.63;106191;1254;73646;-75
2023/06/28 04:12:30;;;;;;;6.70;3.90;;;;;;;16.54;86.33;98771.70;106707;1258;68900;-78
2023/06/28 04:14:58;;;;;;;6.10;4.10;;;;;;;16.53;86.58;98765.17;109492;1254;71402;-77
2023/06/28 04:17:24;;;;;;;8.80;4.90;;;;;;;16.65;86.48;98767.33;107223;1258;60655;-76
2023/06/28 04:19:51;;;;;;;4.90;3.90;;;;;;;16.77;85.98;98771.63;107142;1254;59983;-77
2023/06/28 04:22:18;;;;;;;6.80;4.10;;;;;;;16.85;85.77;98775.29;107233;1259;60300;-76
2023/06/28 04:24:45;;;;;;;5.20;4.10;;;;;;;16.92;85.16;98776.30;107228;1258;69187;-77
2023/06/28 04:27:14;;;;;;;4.10;3.40;;;;;;;17.04;83.65;98777.38;107455;1257;71384;-77
2023/06/28 04:29:41;;;;;;;5.40;3.90;;;;;;;17.13;82.96;98777.68;106229;1260;60335;-77
2023/06/28 04:32:21;;;;;;;4.40;3.80;;;;;;;17.14;82.85;98775.67;105918;1260;60412;-76
2023/06/28 04:34:49;;;;;;;5.50;4.10;;;;;;;17.17;83.05;98781.38;106038;1259;73810;-75
2023/06/28 04:37:17;;;;;;;6.40;3.70;;;;;;;17.24;82.68;98780.83;106159;1254;70261;-76
2023/06/28 04:39:44;;;;;;;5.90;3.90;;;;;;;17.25;82.57;98778.11;105915;1257;72652;-75
2023/06/28 04:42:15;;;;;;;5.80;3.90;;;;;;;17.19;81.98;98783.92;106462;1259;60536;-77
2023/06/28 04:44:43;;;;;;;5.40;3.60;;;;;;;17.07;81.62;98780.95;109122;1254;60218;-79
2023/06/28 04:47:15;;;;;;;5.80;3.70;;;;;;;17.06;81.66;98784.23;107740;1257;72416;-81
2023/06/28 04:49:47;;;;;;;7.50;3.90;;;;;;;17.02;81.99;98785.13;106222;1255;69373;-81
2023/06/28 04:52:22;;;;;;;6.40;3.40;;;;;;;16.96;81.55;98791.14;106226;1260;72742;-83
2023/06/28 04:54:49;;;;;;;5.30;3.70;;;;;;;16.94;81.47;98793.20;106187;1254;61752;-82
2023/06/28 04:57:17;;;;;;;6.80;3.70;;;;;;;17.01;81.40;98794.39;107001;1254;60774;-82
2023/06/28 04:59:44;;;;;;;6.40;3.70;;;;;;;17.04;81.12;98791.77;107240;1254;293539;-86
2023/06/28 05:04:06;;;;;;;4.30;3.30;;;;;;;17.18;81.17;98792.66;102979;1289;601049;-79
2023/06/28 05:06:35;;;;;;;4.40;3.30;;;;;;;17.32;80.58;98789.55;105228;1267;61845;-79
2023/06/28 05:09:03;;;;;;;6.90;3.80;;;;;;;17.48;79.80;98785.10;105310;1267;60207;-78
2023/06/28 05:11:30;;;;;;;3.60;3.30;;;;;;;17.57;78.47;98790.98;105447;1267;71044;-78
2023/06/28 05:13:58;;;;;;;5.50;3.30;;;;;;;17.57;77.94;98796.58;107384;1271;68834;-76
2023/06/28 05:16:35;;;;;;;4.80;3.30;;;;;;;17.59;77.27;98791.62;107318;1269;219579;-78
2023/06/28 05:19:03;;;;;;;4.80;3.00;;;;;;;17.65;76.51;98792.16;105653;1264;59355;-77
2023/06/28 05:21:30;;;;;;;3.20;2.80;;;;;;;17.61;75.90;98792.84;105662;1263;60024;-76
2023/06/28 05:23:58;;;;;;;3.80;3.20;;;;;;;17.51;76.14;98796.17;105318;1265;72416;-76
2023/06/28 05:26:25;;;;;;;6.20;2.90;;;;;;;17.42;76.18;98799.47;105408;1261;70065;-78
2023/06/28 05:28:53;;;;;;;3.50;3.10;;;;;;;17.39;76.44;98797.95;105500;1267;71841;-79
2023/06/28 05:31:21;;;;;;;5.20;3.20;;;;;;;17.47;76.14;98796.69;105377;1269;59736;-77
2023/06/28 05:33:48;;;;;;;4.40;3.60;;;;;;;17.50;75.03;98798.79;105452;1264;59685;-81
2023/06/28 05:36:20;;;;;;;5.80;3.20;;;;;;;17.46;74.39;98802.53;105875;1262;72333;-79
2023/06/28 05:38:48;;;;;;;4.40;2.50;;;;;;;17.43;74.69;98802.88;106495;1261;69013;-76
2023/06/28 05:41:16;;;;;;;4.90;2.50;;;;;;;17.47;74.69;98811.41;106258;1264;71271;-77
2023/06/28 05:43:44;;;;;;;3.70;2.90;;;;;;;17.61;74.68;98807.38;107578;1263;59541;-79
2023/06/28 05:46:12;;;;;;;3.20;2.90;;;;;;;17.66;74.20;98805.45;108314;1262;58764;-76
2023/06/28 05:48:39;;;;;;;4.60;2.70;;;;;;;17.72;72.45;98805.14;105520;1264;72184;-78
2023/06/28 05:51:09;;;;;;;4.20;2.70;;;;;;;17.73;71.09;98811.41;105474;1264;68779;-77
2023/06/28 05:53:38;;;;;;;3.30;2.70;;;;;;;17.73;71.34;98812.27;105399;1267;71424;-78
2023/06/28 05:56:06;;;;;;;4.50;2.40;;;;;;;17.76;71.07;98813.12;105415;1264;60099;-79
2023/06/28 05:58:33;;;;;;;2.80;2.50;;;;;;;17.80;71.52;98817.09;105569;1267;59633;-74
2023/06/28 06:01:01;;;;;;;3.20;2.60;;;;;;;17.96;71.25;98823.81;105840;1263;73098;-79
2023/06/28 06:03:30;;;;;;;3.90;2.50;;;;;;;18.05;70.78;98821.80;105781;1254;72145;-76
2023/06/28 06:05:58;;;;;;;2.90;2.50;;;;;;;18.08;70.59;98822.34;105844;1260;74166;-75
2023/06/28 06:08:25;;;;;;;4.80;3.10;;;;;;;18.09;69.69;98822.84;105955;1257;60040;-80
2023/06/28 06:10:53;;;;;;;4.70;2.80;;;;;;;18.02;69.46;98823.61;105945;1260;59546;-74
2023/06/28 06:13:20;;;;;;;3.40;3.00;;;;;;;17.90;69.62;98817.69;106947;1254;71996;-75
2023/06/28 06:15:47;;;;;;;3.60;2.20;;;;;;;17.80;70.07;98819.98;107529;1255;69041;-81
2023/06/28 06:18:16;;;;;;;3.80;2.40;;;;;;;17.80;70.00;98819.02;106662;1259;74663;-83
2023/06/28 06:20:44;;;;;;;2.60;2.40;;;;;;;17.85;69.75;98814.57;106674;1257;59503;-82
2023/06/28 06:23:12;;;;;;;5.90;2.40;;;;;;;17.83;69.97;98806.56;106230;1255;59724;-82
2023/06/28 06:25:39;;;;;;;5.10;2.40;;;;;;;17.83;69.87;98814.14;106140;1254;73042;-78
2023/06/28 06:28:06;;;;;;;2.70;2.30;;;;;;;17.83;69.34;98809.09;105968;1254;70580;-75
2023/06/28 06:30:34;;;;;;;2.80;2.50;;;;;;;17.82;69.44;98813.25;106145;1257;71583;-77
2023/06/28 06:33:01;;;;;;;3.70;2.70;;;;;;;17.82;69.82;98818.52;106324;1257;59743;-78
2023/06/28 06:35:29;;;;;;;3.40;2.80;;;;;;;17.90;69.83;98821.33;106001;1257;59608;-79
2023/06/28 06:37:56;;;;;;;2.70;2.20;;;;;;;17.99;68.78;98827.53;106022;1254;72158;-77
2023/06/28 06:40:24;;;;;;;2.90;2.50;;;;;;;17.97;68.27;98824.48;106131;1256;69040;-76
2023/06/28 06:42:51;;;;;;;3.80;2.30;;;;;;;17.96;68.49;98825.54;106391;1257;72696;-77
2023/06/28 06:45:19;;;;;;;3.80;2.10;;;;;;;18.04;69.03;98828.80;108994;1255;60015;-77
2023/06/28 06:47:47;;;;;;;5.80;2.50;;;;;;;18.19;68.95;98833.29;107187;1254;59854;-78
2023/06/28 06:50:14;;;;;;;3.20;2.50;;;;;;;18.34;68.15;98834.27;106037;1256;71774;-79
2023/06/28 06:52:42;;;;;;;2.60;2.40;;;;;;;18.46;68.02;98839.27;106052;1254;69235;-78
2023/06/28 06:55:09;;;;;;;2.70;2.40;;;;;;;18.53;68.24;98843.17;106054;1256;71770;-81
2023/06/28 06:57:37;;;;;;;2.90;2.60;;;;;;;18.63;67.89;98846.80;106394;1254;60865;-76
2023/06/28 07:00:05;;;;;;;4.10;2.50;;;;;;;18.73;66.78;98850.50;106215;1254;59659;-75
2023/06/28 07:02:32;;;;;;;9.30;2.70;;;;;;;18.79;65.84;98847.55;106131;1257;73290;-76
2023/06/28 07:05:00;;;;;;;4.00;2.40;;;;;;;18.82;65.52;98851.88;106099;1259;68232;-77
2023/06/28 07:07:27;;;;;;;3.20;2.40;;;;;;;18.83;64.82;98851.02;106388;1257;71226;-77
2023/06/28 07:09:55;;;;;;;3.20;2.40;;;;;;;18.79;65.09;98849.95;106242;1260;60992;-78
2023/06/28 07:12:22;;;;;;;3.20;2.70;;;;;;;18.74;64.63;98849.77;106542;1258;59676;-76
2023/06/28 07:14:50;;;;;;;3.70;2.60;;;;;;;18.71;64.45;98850.96;108247;1254;72896;-76
2023/06/28 07:17:17;;;;;;;3.60;2.30;;;;;;;18.73;64.75;98848.19;108888;1254;68753;-75
2023/06/28 07:19:46;;;;;;;2.50;2.30;;;;;;;18.81;65.01;98856.95;105846;1259;71598;-77
2023/06/28 07:22:14;;;;;;;3.70;2.40;;;;;;;18.91;64.49;98857.23;105893;1253;59745;-77
2023/06/28 07:24:41;;;;;;;3.20;2.40;;;;;;;18.97;64.72;98858.99;105780;1257;59394;-77
2023/06/28 07:27:09;;;;;;;3.20;2.20;;;;;;;19.01;63.17;98861.11;105791;1254;73161;-77
2023/06/28 07:29:36;;;;;;;4.10;2.40;;;;;;;18.98;62.86;98854.17;105791;1254;70518;-78
2023/06/28 07:32:04;;;;;;;2.30;2.10;;;;;;;18.98;63.39;98848.73;106030;1254;70240;-79
2023/06/28 07:34:32;;;;;;;8.80;3.30;;;;;;;19.03;63.53;98842.62;105896;1254;60046;-77
2023/06/28 07:37:01;;;;;;;3.00;2.20;;;;;;;19.14;63.26;98853.89;106083;1253;59713;-76
2023/06/28 07:39:30;;;;;;;2.20;2.00;;;;;;;19.20;63.03;98854.14;106082;1254;73379;-76
2023/06/28 07:41:58;;;;;;;3.90;2.40;;;;;;;19.25;62.59;98855.25;106300;1257;70632;-77
2023/06/28 07:44:25;;;;;;;2.50;2.00;;;;;;;19.32;61.72;98853.55;107434;1254;73183;-75
2023/06/28 07:46:53;;;;;;;2.20;2.00;;;;;;;19.31;60.66;98850.80;109039;1253;60064;-77
2023/06/28 07:49:21;;;;;;;2.80;2.10;;;;;;;19.28;61.17;98847.89;106763;1257;59640;-74
2023/06/28 07:51:48;;;;;;;2.70;2.40;;;;;;;19.29;61.63;98854.00;106204;1253;71939;-75
2023/06/28 07:54:16;;;;;;;3.70;2.20;;;;;;;19.32;61.31;98855.45;106224;1254;70689;-78
2023/06/28 07:57:00;;;;;;;2.60;1.70;;;;;;;19.33;61.43;98851.41;106087;1254;71925;-76
2023/06/28 07:59:28;;;;;;;3.40;2.40;;;;;;;19.36;61.66;98857.08;106092;1259;59622;-77
2023/06/28 08:01:56;;;;;;;4.10;2.40;;;;;;;19.41;60.50;98849.98;106054;1254;59625;-74
2023/06/28 08:04:23;;;;;;;4.90;2.80;;;;;;;19.45;60.40;98847.19;106024;1259;71839;-77
2023/06/28 08:06:51;;;;;;;2.30;2.10;;;;;;;19.51;60.04;98840.78;106059;1259;69233;-74
2023/06/28 08:09:18;;;;;;;3.80;2.40;;;;;;;19.53;59.30;98838.56;105977;1254;72467;-75
2023/06/28 08:11:45;;;;;;;2.30;1.90;;;;;;;19.51;59.25;98842.95;106248;1251;59512;-77
2023/06/28 08:14:13;;;;;;;2.80;2.20;;;;;;;19.48;59.85;98845.01;107033;1254;60024;-73
2023/06/28 08:16:40;;;;;;;3.20;2.50;;;;;;;19.52;59.82;98850.89;108695;1252;73035;-76
2023/06/28 08:19:09;;;;;;;2.60;2.30;;;;;;;19.59;59.95;98845.33;107374;1254;68716;-74
2023/06/28 08:21:36;;;;;;;3.70;2.60;;;;;;;19.67;60.22;98846.65;106355;1253;72621;-74
2023/06/28 08:24:04;;;;;;;2.80;2.20;;;;;;;19.72;59.73;98847.84;105962;1256;59730;-76
2023/06/28 08:26:35;;;;;;;2.50;2.20;;;;;;;19.70;59.17;98849.19;106102;1254;59534;-73
2023/06/28 08:29:03;;;;;;;3.50;2.40;;;;;;;19.64;59.43;98857.57;106115;1256;73010;-76
2023/06/28 08:31:30;;;;;;;4.00;2.20;;;;;;;19.64;59.41;98854.21;105979;1258;68895;-77
2023/06/28 08:33:58;;;;;;;2.40;2.20;;;;;;;19.71;59.95;98851.90;106171;1257;71451;-76
2023/06/28 08:36:27;;;;;;;3.50;2.00;;;;;;;19.84;59.81;98843.47;106038;1257;59608;-75
2023/06/28 08:38:55;;;;;;;6.00;2.30;;;;;;;19.95;59.20;98839.07;105904;1253;59759;-73
2023/06/28 08:41:22;;;;;;;2.30;2.10;;;;;;;20.01;59.00;98844.15;106107;1257;73074;-73
2023/06/28 08:43:53;;;;;;;3.00;2.30;;;;;;;20.06;59.01;98841.52;106412;1253;70399;-74
2023/06/28 08:46:21;;;;;;;3.80;2.20;;;;;;;20.14;58.23;98842.95;108342;1256;71445;-75
2023/06/28 08:48:49;;;;;;;2.70;2.30;;;;;;;20.22;57.95;98841.54;108040;1253;59733;-74
2023/06/28 08:51:16;;;;;;;2.70;2.20;;;;;;;20.31;57.84;98844.58;106536;1254;60051;-73
2023/06/28 08:53:47;;;;;;;2.00;1.80;;;;;;;20.40;57.07;98838.63;106245;1256;72979;-73
2023/06/28 08:56:18;;;;;;;2.00;1.70;;;;;;;20.50;56.22;98837.50;106122;1253;68234;-73
2023/06/28 08:58:49;;;;;;;1.70;1.60;;;;;;;20.66;53.27;98845.39;106098;1254;71196;-75
2023/06/28 09:01:16;;;;;;;2.80;1.60;;;;;;;20.81;53.07;98833.86;106406;1256;59697;-76
2023/06/28 09:03:44;;;;;;;1.90;1.50;;;;;;;20.91;52.50;98837.14;106410;1254;59679;-75
2023/06/28 09:06:11;;;;;;;2.10;1.60;;;;;;;20.99;51.37;98849.09;107041;1253;74074;-76
2023/06/28 09:08:39;;;;;;;2.20;1.50;;;;;;;21.09;51.45;98836.95;107434;1253;70338;-75
2023/06/28 09:11:07;;;;;;;3.90;2.30;;;;;;;21.17;51.52;98836.73;107506;1254;71357;-74
2023/06/28 09:13:34;;;;;;;2.80;1.90;;;;;;;21.22;50.99;98837.52;107512;1252;60454;-74
2023/06/28 09:16:01;;;;;;;3.20;2.00;;;;;;;21.22;51.46;98840.77;109211;1253;60261;-76
2023/06/28 09:18:29;;;;;;;2.00;1.60;;;;;;;21.22;52.05;98836.55;108670;1254;72599;-75
2023/06/28 09:20:56;;;;;;;3.80;2.10;;;;;;;21.22;52.27;98836.23;106808;1251;70303;-73
2023/06/28 09:23:28;;;;;;;3.60;1.90;;;;;;;21.29;52.23;98831.95;106916;1254;71428;-73
2023/06/28 09:25:56;;;;;;;2.40;1.70;;;;;;;21.36;51.66;98833.14;106428;1254;60453;-75
2023/06/28 09:28:32;;;;;;;3.50;1.80;;;;;;;21.37;50.84;98831.57;106721;1257;60353;-75
2023/06/28 09:31:00;;;;;;;1.90;1.60;;;;;;;21.29;50.50;98837.36;106541;1254;73851;-74
2023/06/28 09:33:28;;;;;;;3.40;1.70;;;;;;;21.21;50.80;98837.30;106516;1254;70541;-75
2023/06/28 09:35:56;;;;;;;1.60;1.50;;;;;;;21.31;50.99;98830.50;106719;1252;71246;-73
2023/06/28 09:38:25;;;;;;;7.50;1.90;;;;;;;21.45;50.56;98826.29;107408;1251;60476;-73
2023/06/28 09:40:59;;;;;;;2.40;1.80;;;;;;;21.58;50.24;98823.60;107664;1251;60421;-74
2023/06/28 09:43:34;;;;;;;3.30;1.60;;;;;;;21.74;49.50;98823.56;108198;1253;73945;-75
2023/06/28 09:46:16;;;;;;;2.50;1.70;;;;;;;22.04;49.40;98819.79;109183;1254;68970;-77
2023/06/28 09:48:48;;;;;;;1.40;1.30;;;;;;;22.52;49.31;98815.21;108907;1254;71497;-76
2023/06/28 09:51:15;;;;;;;2.70;1.90;;;;;;;22.96;47.67;98818.11;109277;1254;59143;-74
2023/06/28 09:53:56;;;;;;;3.40;1.70;;;;;;;23.18;47.17;98823.63;109313;1253;61101;-75
2023/06/28 09:56:34;;;;;;;3.60;2.00;;;;;;;23.36;46.22;98838.01;109411;1253;72376;-74
2023/06/28 09:59:15;;;;;;;1.70;1.50;;;;;;;23.44;45.66;98835.55;109262;1253;69180;-75
2023/06/28 10:02:04;;;;;;;2.10;1.60;;;;;;;23.50;45.59;98836.08;109324;1254;71275;-74
2023/06/28 10:04:33;;;;;;;3.30;1.50;;;;;;;23.55;45.09;98842.08;109373;1253;58816;-75
2023/06/28 10:07:05;;;;;;;2.90;1.60;;;;;;;23.72;44.87;98843.71;109061;1252;59527;-75
2023/06/28 10:09:39;;;;;;;4.00;1.80;;;;;;;23.87;44.31;98829.46;108948;1253;72618;-74
2023/06/28 10:12:20;;;;;;;1.70;1.50;;;;;;;24.03;44.07;98827.95;108322;1254;70063;-74
2023/06/28 10:14:56;;;;;;;7.00;1.80;;;;;;;24.23;43.93;98830.66;108647;1255;71483;-71
2023/06/28 10:17:31;;;;;;;3.50;1.90;;;;;;;24.53;42.99;98831.83;108122;1254;60527;-74
2023/06/28 10:19:59;;;;;;;5.50;2.10;;;;;;;24.97;42.07;98834.83;109001;1254;60657;-72
2023/06/28 10:22:27;;;;;;;2.70;1.90;;;;;;;25.32;41.12;98835.67;109071;1254;72658;-74
2023/06/28 10:24:57;;;;;;;2.10;1.80;;;;;;;25.72;41.28;98829.52;109158;1254;68719;-74
2023/06/28 10:27:24;;;;;;;3.40;1.70;;;;;;;26.16;39.97;98818.60;109197;1253;73586;-76
2023/06/28 10:29:54;;;;;;;2.90;1.70;;;;;;;26.58;39.64;98817.02;109010;1253;58899;-75
2023/06/28 10:32:23;;;;;;;5.80;1.90;;;;;;;26.85;38.56;98823.86;109015;1253;59959;-71
2023/06/28 10:34:51;;;;;;;2.10;1.60;;;;;;;27.00;38.29;98822.77;108954;1254;72297;-73
2023/06/28 10:37:22;;;;;;;3.10;1.90;;;;;;;27.14;37.84;98818.02;108873;1254;69047;-71
2023/06/28 10:39:51;;;;;;;1.70;1.50;;;;;;;26.97;37.65;98834.44;108717;1254;72090;-72
2023/06/28 10:42:19;;;;;;;3.50;1.70;;;;;;;26.52;37.95;98825.62;108536;1253;60530;-74
2023/06/28 10:44:53;;;;;;;2.30;1.90;;;;;;;26.00;38.94;98830.94;107258;1253;60518;-70
2023/06/28 10:47:21;;;;;;;3.60;1.70;;;;;;;25.59;39.80;98836.32;106834;1254;72691;-73
2023/06/28 10:50:24;;;;;;;4.70;1.90;;;;;;;25.50;40.21;98837.05;107932;1258;71406;-74
2023/06/28 10:52:53;;;;;;;3.30;2.00;;;;;;;25.66;39.80;98826.17;105894;1260;71860;-73
2023/06/28 10:55:31;;;;;;;2.30;1.80;;;;;;;25.95;39.10;98820.29;105705;1254;60382;-72
2023/06/28 10:58:10;;;;;;;3.00;1.70;;;;;;;26.20;38.57;98818.98;105840;1254;60444;-77
2023/06/28 11:00:41;;;;;;;3.30;1.60;;;;;;;26.32;38.34;98820.06;105926;1259;73885;-76
2023/06/28 11:03:09;;;;;;;2.70;1.80;;;;;;;26.51;38.28;98808.67;106000;1257;69060;-73
2023/06/28 11:05:45;;;;;;;4.00;1.80;;;;;;;26.67;37.77;98797.67;105991;1254;72782;-73
2023/06/28 11:08:15;;;;;;;2.10;1.50;;;;;;;26.72;37.45;98808.42;106006;1257;60588;-72
2023/06/28 11:10:48;;;;;;;3.50;1.80;;;;;;;26.80;36.41;98797.83;105850;1254;60546;-76
2023/06/28 11:13:32;;;;;;;2.70;1.70;;;;;;;26.96;36.44;98793.73;105724;1254;72690;-73
2023/06/28 11:16:08;;;;;;;3.70;2.00;;;;;;;27.28;36.20;98792.63;106024;1259;68753;-74
2023/06/28 11:18:36;;;;;;;2.60;2.10;;;;;;;27.57;35.73;98799.34;106399;1254;73348;-75
2023/06/28 11:21:05;;;;;;;4.60;1.60;;;;;;;27.91;34.84;98790.86;107764;1257;59343;-76
2023/06/28 11:23:37;;;;;;;2.60;1.60;;;;;;;28.28;34.33;98791.31;106685;1253;60533;-73
2023/06/28 11:26:06;;;;;;;2.90;1.60;;;;;;;28.65;33.23;98789.77;106015;1254;73682;-75
2023/06/28 11:28:34;;;;;;;2.50;1.80;;;;;;;28.98;32.84;98786.06;105933;1254;69260;-72
2023/06/28 11:31:20;;;;;;;3.00;1.90;;;;;;;29.29;32.87;98786.20;105899;1253;71482;-73
2023/06/28 11:33:54;;;;;;;3.50;2.00;;;;;;;29.52;33.22;98787.42;106026;1251;60482;-71